sensor_id;sensor_type;location;lat;lon;timestamp;P1;durP1;ratioP1;P2;durP2;ratioP2
46729;SDS011;32476;50.002;11.854;2023-05-07T00:00:59;9.97;;;7.93;;
46729;SDS011;32476;50.002;11.854;2023-05-07T00:03:25;10.57;;;9.10;;
46729;SDS011;32476;50.002;11.854;2023-05-07T00:05:53;13.80;;;8.57;;
46729;SDS011;32476;50.002;11.854;2023-05-07T00:08:19;13.47;;;9.63;;
46729;SDS011;32476;50.002;11.854;2023-05-07T00:10:45;14.67;;;9.57;;
46729;SDS011;32476;50.002;11.854;2023-05-07T00:13:13;12.60;;;9.20;;
46729;SDS011;32476;50.002;11.854;2023-05-07T00:15:38;12.07;;;9.60;;
46729;SDS011;32476;50.002;11.854;2023-05-07T00:18:04;11.57;;;9.07;;
46729;SDS011;32476;50.002;11.854;2023-05-07T00:20:32;12.93;;;8.57;;
46729;SDS011;32476;50.002;11.854;2023-05-07T00:22:57;13.67;;;8.30;;
46729;SDS011;32476;50.002;11.854;2023-05-07T00:25:23;12.07;;;8.97;;
46729;SDS011;32476;50.002;11.854;2023-05-07T00:27:50;13.00;;;8.93;;
46729;SDS011;32476;50.002;11.854;2023-05-07T00:30:16;12.50;;;9.90;;
46729;SDS011;32476;50.002;11.854;2023-05-07T00:32:42;12.77;;;9.60;;
46729;SDS011;32476;50.002;11.854;2023-05-07T00:35:12;12.63;;;9.73;;
46729;SDS011;32476;50.002;11.854;2023-05-07T00:37:38;15.73;;;10.03;;
46729;SDS011;32476;50.002;11.854;2023-05-07T00:40:03;13.70;;;9.90;;
46729;SDS011;32476;50.002;11.854;2023-05-07T00:42:33;12.50;;;9.43;;
46729;SDS011;32476;50.002;11.854;2023-05-07T00:44:59;14.07;;;9.37;;
46729;SDS011;32476;50.002;11.854;2023-05-07T00:47:25;12.37;;;9.20;;
46729;SDS011;32476;50.002;11.854;2023-05-07T00:49:52;12.10;;;9.73;;
46729;SDS011;32476;50.002;11.854;2023-05-07T00:52:18;14.07;;;9.90;;
46729;SDS011;32476;50.002;11.854;2023-05-07T00:54:47;12.50;;;9.13;;
46729;SDS011;32476;50.002;11.854;2023-05-07T00:57:14;13.00;;;9.07;;
46729;SDS011;32476;50.002;11.854;2023-05-07T00:59:40;12.73;;;10.13;;
46729;SDS011;32476;50.002;11.854;2023-05-07T01:02:07;15.67;;;9.00;;
46729;SDS011;32476;50.002;11.854;2023-05-07T01:04:34;11.83;;;9.43;;
46729;SDS011;32476;50.002;11.854;2023-05-07T01:07:00;12.67;;;9.73;;
46729;SDS011;32476;50.002;11.854;2023-05-07T01:09:27;14.47;;;9.87;;
46729;SDS011;32476;50.002;11.854;2023-05-07T01:11:55;11.77;;;9.53;;
46729;SDS011;32476;50.002;11.854;2023-05-07T01:14:22;14.17;;;9.17;;
46729;SDS011;32476;50.002;11.854;2023-05-07T01:16:49;12.30;;;8.77;;
46729;SDS011;32476;50.002;11.854;2023-05-07T01:19:18;14.23;;;8.03;;
46729;SDS011;32476;50.002;11.854;2023-05-07T01:21:48;8.83;;;7.83;;
46729;SDS011;32476;50.002;11.854;2023-05-07T01:24:14;10.43;;;7.77;;
46729;SDS011;32476;50.002;11.854;2023-05-07T01:26:43;10.10;;;7.83;;
46729;SDS011;32476;50.002;11.854;2023-05-07T01:29:12;10.93;;;7.93;;
46729;SDS011;32476;50.002;11.854;2023-05-07T01:31:37;10.70;;;7.77;;
46729;SDS011;32476;50.002;11.854;2023-05-07T01:34:07;8.60;;;6.43;;
46729;SDS011;32476;50.002;11.854;2023-05-07T01:36:35;10.23;;;8.37;;
46729;SDS011;32476;50.002;11.854;2023-05-07T01:39:03;10.07;;;6.73;;
46729;SDS011;32476;50.002;11.854;2023-05-07T01:41:32;8.23;;;6.77;;
46729;SDS011;32476;50.002;11.854;2023-05-07T01:43:58;10.00;;;7.67;;
46729;SDS011;32476;50.002;11.854;2023-05-07T01:46:26;12.67;;;7.60;;
46729;SDS011;32476;50.002;11.854;2023-05-07T01:48:53;15.10;;;9.13;;
46729;SDS011;32476;50.002;11.854;2023-05-07T01:51:19;13.60;;;10.00;;
46729;SDS011;32476;50.002;11.854;2023-05-07T01:53:46;19.27;;;10.33;;
46729;SDS011;32476;50.002;11.854;2023-05-07T01:56:17;11.87;;;9.57;;
46729;SDS011;32476;50.002;11.854;2023-05-07T01:58:46;16.63;;;10.77;;
46729;SDS011;32476;50.002;11.854;2023-05-07T02:01:13;15.73;;;10.83;;
46729;SDS011;32476;50.002;11.854;2023-05-07T02:03:40;16.67;;;11.67;;
46729;SDS011;32476;50.002;11.854;2023-05-07T02:06:06;16.20;;;10.60;;
46729;SDS011;32476;50.002;11.854;2023-05-07T02:08:32;13.23;;;10.30;;
46729;SDS011;32476;50.002;11.854;2023-05-07T02:10:59;13.30;;;9.57;;
46729;SDS011;32476;50.002;11.854;2023-05-07T02:13:28;11.60;;;8.13;;
46729;SDS011;32476;50.002;11.854;2023-05-07T02:15:55;13.60;;;7.63;;
46729;SDS011;32476;50.002;11.854;2023-05-07T02:18:22;13.13;;;8.70;;
46729;SDS011;32476;50.002;11.854;2023-05-07T02:20:48;13.60;;;9.97;;
46729;SDS011;32476;50.002;11.854;2023-05-07T02:23:14;11.03;;;8.63;;
46729;SDS011;32476;50.002;11.854;2023-05-07T02:25:41;11.27;;;9.10;;
46729;SDS011;32476;50.002;11.854;2023-05-07T02:28:07;10.47;;;8.23;;
46729;SDS011;32476;50.002;11.854;2023-05-07T02:30:32;14.83;;;11.20;;
46729;SDS011;32476;50.002;11.854;2023-05-07T02:33:00;17.37;;;12.17;;
46729;SDS011;32476;50.002;11.854;2023-05-07T02:35:25;20.03;;;13.23;;
46729;SDS011;32476;50.002;11.854;2023-05-07T02:37:51;15.63;;;12.20;;
46729;SDS011;32476;50.002;11.854;2023-05-07T02:40:18;18.27;;;12.57;;
46729;SDS011;32476;50.002;11.854;2023-05-07T02:42:44;15.00;;;10.90;;
46729;SDS011;32476;50.002;11.854;2023-05-07T02:45:10;15.73;;;11.87;;
46729;SDS011;32476;50.002;11.854;2023-05-07T02:47:37;15.20;;;12.20;;
46729;SDS011;32476;50.002;11.854;2023-05-07T02:50:03;14.37;;;11.20;;
46729;SDS011;32476;50.002;11.854;2023-05-07T02:52:30;17.90;;;11.20;;
46729;SDS011;32476;50.002;11.854;2023-05-07T02:54:57;14.60;;;11.60;;
46729;SDS011;32476;50.002;11.854;2023-05-07T02:57:23;9.97;;;8.67;;
46729;SDS011;32476;50.002;11.854;2023-05-07T02:59:48;11.63;;;8.73;;
46729;SDS011;32476;50.002;11.854;2023-05-07T03:02:16;12.33;;;8.83;;
46729;SDS011;32476;50.002;11.854;2023-05-07T03:04:42;12.67;;;8.60;;
46729;SDS011;32476;50.002;11.854;2023-05-07T03:07:07;11.80;;;9.17;;
46729;SDS011;32476;50.002;11.854;2023-05-07T03:09:35;14.40;;;11.43;;
46729;SDS011;32476;50.002;11.854;2023-05-07T03:12:00;15.23;;;10.10;;
46729;SDS011;32476;50.002;11.854;2023-05-07T03:14:26;14.43;;;10.03;;
46729;SDS011;32476;50.002;11.854;2023-05-07T03:16:54;13.10;;;10.20;;
46729;SDS011;32476;50.002;11.854;2023-05-07T03:19:20;11.70;;;9.80;;
46729;SDS011;32476;50.002;11.854;2023-05-07T03:21:45;13.87;;;10.00;;
46729;SDS011;32476;50.002;11.854;2023-05-07T03:24:13;17.43;;;12.67;;
46729;SDS011;32476;50.002;11.854;2023-05-07T03:26:39;15.37;;;9.80;;
46729;SDS011;32476;50.002;11.854;2023-05-07T03:29:04;15.53;;;11.70;;
46729;SDS011;32476;50.002;11.854;2023-05-07T03:31:32;21.13;;;15.00;;
46729;SDS011;32476;50.002;11.854;2023-05-07T03:33:57;25.90;;;17.03;;
46729;SDS011;32476;50.002;11.854;2023-05-07T03:36:24;27.03;;;17.30;;
46729;SDS011;32476;50.002;11.854;2023-05-07T03:38:53;24.20;;;16.77;;
46729;SDS011;32476;50.002;11.854;2023-05-07T03:41:20;25.67;;;17.13;;
46729;SDS011;32476;50.002;11.854;2023-05-07T03:43:45;19.00;;;13.57;;
46729;SDS011;32476;50.002;11.854;2023-05-07T03:46:13;25.33;;;16.53;;
46729;SDS011;32476;50.002;11.854;2023-05-07T03:48:39;21.97;;;14.07;;
46729;SDS011;32476;50.002;11.854;2023-05-07T03:51:04;17.57;;;12.60;;
46729;SDS011;32476;50.002;11.854;2023-05-07T03:53:32;17.77;;;12.83;;
46729;SDS011;32476;50.002;11.854;2023-05-07T03:55:57;17.13;;;11.97;;
46729;SDS011;32476;50.002;11.854;2023-05-07T03:58:24;18.80;;;13.20;;
46729;SDS011;32476;50.002;11.854;2023-05-07T04:00:51;16.00;;;12.10;;
46729;SDS011;32476;50.002;11.854;2023-05-07T04:03:17;16.63;;;12.70;;
46729;SDS011;32476;50.002;11.854;2023-05-07T04:05:43;17.33;;;12.93;;
46729;SDS011;32476;50.002;11.854;2023-05-07T04:08:10;19.00;;;13.53;;
46729;SDS011;32476;50.002;11.854;2023-05-07T04:10:36;20.53;;;13.60;;
46729;SDS011;32476;50.002;11.854;2023-05-07T04:13:02;24.90;;;15.17;;
46729;SDS011;32476;50.002;11.854;2023-05-07T04:15:29;24.13;;;15.47;;
46729;SDS011;32476;50.002;11.854;2023-05-07T04:17:55;27.13;;;16.87;;
46729;SDS011;32476;50.002;11.854;2023-05-07T04:20:21;28.73;;;20.27;;
46729;SDS011;32476;50.002;11.854;2023-05-07T04:22:48;24.37;;;16.43;;
46729;SDS011;32476;50.002;11.854;2023-05-07T04:25:15;21.40;;;15.43;;
46729;SDS011;32476;50.002;11.854;2023-05-07T04:27:42;18.73;;;13.73;;
46729;SDS011;32476;50.002;11.854;2023-05-07T04:30:09;21.93;;;14.00;;
46729;SDS011;32476;50.002;11.854;2023-05-07T04:32:35;18.77;;;13.57;;
46729;SDS011;32476;50.002;11.854;2023-05-07T04:35:02;20.37;;;14.97;;
46729;SDS011;32476;50.002;11.854;2023-05-07T04:37:31;21.17;;;14.27;;
46729;SDS011;32476;50.002;11.854;2023-05-07T04:39:57;22.80;;;14.70;;
46729;SDS011;32476;50.002;11.854;2023-05-07T04:42:23;22.97;;;15.80;;
46729;SDS011;32476;50.002;11.854;2023-05-07T04:44:52;19.57;;;14.60;;
46729;SDS011;32476;50.002;11.854;2023-05-07T04:47:18;24.00;;;15.80;;
46729;SDS011;32476;50.002;11.854;2023-05-07T04:49:44;19.70;;;15.20;;
46729;SDS011;32476;50.002;11.854;2023-05-07T04:52:12;20.37;;;14.97;;
46729;SDS011;32476;50.002;11.854;2023-05-07T04:54:37;18.73;;;13.50;;
46729;SDS011;32476;50.002;11.854;2023-05-07T04:57:03;18.87;;;15.30;;
46729;SDS011;32476;50.002;11.854;2023-05-07T04:59:31;18.77;;;13.63;;
46729;SDS011;32476;50.002;11.854;2023-05-07T05:01:57;20.73;;;15.00;;
46729;SDS011;32476;50.002;11.854;2023-05-07T05:04:23;22.23;;;16.90;;
46729;SDS011;32476;50.002;11.854;2023-05-07T05:06:51;22.50;;;15.97;;
46729;SDS011;32476;50.002;11.854;2023-05-07T05:09:16;22.73;;;16.80;;
46729;SDS011;32476;50.002;11.854;2023-05-07T05:11:42;28.83;;;16.23;;
46729;SDS011;32476;50.002;11.854;2023-05-07T05:14:10;23.83;;;16.60;;
46729;SDS011;32476;50.002;11.854;2023-05-07T05:16:35;25.43;;;16.13;;
46729;SDS011;32476;50.002;11.854;2023-05-07T05:19:01;23.63;;;14.47;;
46729;SDS011;32476;50.002;11.854;2023-05-07T05:21:28;24.17;;;15.60;;
46729;SDS011;32476;50.002;11.854;2023-05-07T05:23:54;23.60;;;16.50;;
46729;SDS011;32476;50.002;11.854;2023-05-07T05:26:20;23.47;;;17.00;;
46729;SDS011;32476;50.002;11.854;2023-05-07T05:28:48;26.73;;;17.40;;
46729;SDS011;32476;50.002;11.854;2023-05-07T05:31:13;25.30;;;16.40;;
46729;SDS011;32476;50.002;11.854;2023-05-07T05:33:39;21.83;;;15.50;;
46729;SDS011;32476;50.002;11.854;2023-05-07T05:36:09;25.97;;;17.50;;
46729;SDS011;32476;50.002;11.854;2023-05-07T05:38:35;23.63;;;17.60;;
46729;SDS011;32476;50.002;11.854;2023-05-07T05:41:01;28.80;;;19.30;;
46729;SDS011;32476;50.002;11.854;2023-05-07T05:43:28;33.30;;;20.60;;
46729;SDS011;32476;50.002;11.854;2023-05-07T05:45:55;26.67;;;19.17;;
46729;SDS011;32476;50.002;11.854;2023-05-07T05:48:21;28.63;;;18.70;;
46729;SDS011;32476;50.002;11.854;2023-05-07T05:50:49;25.97;;;18.70;;
46729;SDS011;32476;50.002;11.854;2023-05-07T05:53:15;24.03;;;17.77;;
46729;SDS011;32476;50.002;11.854;2023-05-07T05:55:42;27.60;;;19.27;;
46729;SDS011;32476;50.002;11.854;2023-05-07T05:58:12;26.30;;;18.23;;
46729;SDS011;32476;50.002;11.854;2023-05-07T06:00:38;27.63;;;18.37;;
46729;SDS011;32476;50.002;11.854;2023-05-07T06:03:04;26.00;;;17.60;;
46729;SDS011;32476;50.002;11.854;2023-05-07T06:05:31;24.87;;;17.23;;
46729;SDS011;32476;50.002;11.854;2023-05-07T06:07:57;27.13;;;17.83;;
46729;SDS011;32476;50.002;11.854;2023-05-07T06:10:23;22.57;;;16.40;;
46729;SDS011;32476;50.002;11.854;2023-05-07T06:12:50;25.37;;;17.53;;
46729;SDS011;32476;50.002;11.854;2023-05-07T06:15:16;23.07;;;16.30;;
46729;SDS011;32476;50.002;11.854;2023-05-07T06:17:42;28.00;;;16.47;;
46729;SDS011;32476;50.002;11.854;2023-05-07T06:20:10;21.70;;;15.80;;
46729;SDS011;32476;50.002;11.854;2023-05-07T06:22:36;23.63;;;16.43;;
46729;SDS011;32476;50.002;11.854;2023-05-07T06:25:01;23.23;;;16.23;;
46729;SDS011;32476;50.002;11.854;2023-05-07T06:27:29;24.73;;;17.40;;
46729;SDS011;32476;50.002;11.854;2023-05-07T06:29:55;25.33;;;16.73;;
46729;SDS011;32476;50.002;11.854;2023-05-07T06:32:20;27.83;;;17.33;;
46729;SDS011;32476;50.002;11.854;2023-05-07T06:34:48;25.73;;;17.13;;
46729;SDS011;32476;50.002;11.854;2023-05-07T06:37:14;23.53;;;16.83;;
46729;SDS011;32476;50.002;11.854;2023-05-07T06:39:39;24.60;;;16.63;;
46729;SDS011;32476;50.002;11.854;2023-05-07T06:42:07;22.83;;;15.93;;
46729;SDS011;32476;50.002;11.854;2023-05-07T06:44:32;22.33;;;15.67;;
46729;SDS011;32476;50.002;11.854;2023-05-07T06:46:58;22.83;;;15.60;;
46729;SDS011;32476;50.002;11.854;2023-05-07T06:49:25;24.27;;;17.03;;
46729;SDS011;32476;50.002;11.854;2023-05-07T06:51:51;24.37;;;17.00;;
46729;SDS011;32476;50.002;11.854;2023-05-07T06:54:17;27.90;;;18.47;;
46729;SDS011;32476;50.002;11.854;2023-05-07T06:56:45;23.83;;;17.53;;
46729;SDS011;32476;50.002;11.854;2023-05-07T06:59:10;24.57;;;16.43;;
46729;SDS011;32476;50.002;11.854;2023-05-07T07:01:36;26.83;;;18.27;;
46729;SDS011;32476;50.002;11.854;2023-05-07T07:04:04;22.63;;;17.03;;
46729;SDS011;32476;50.002;11.854;2023-05-07T07:06:30;24.37;;;17.57;;
46729;SDS011;32476;50.002;11.854;2023-05-07T07:08:57;21.87;;;17.43;;
46729;SDS011;32476;50.002;11.854;2023-05-07T07:11:25;20.73;;;15.17;;
46729;SDS011;32476;50.002;11.854;2023-05-07T07:13:50;20.83;;;15.30;;
46729;SDS011;32476;50.002;11.854;2023-05-07T07:16:16;19.83;;;14.30;;
46729;SDS011;32476;50.002;11.854;2023-05-07T07:18:44;19.97;;;14.70;;
46729;SDS011;32476;50.002;11.854;2023-05-07T07:21:10;19.23;;;14.23;;
46729;SDS011;32476;50.002;11.854;2023-05-07T07:23:35;22.03;;;13.80;;
46729;SDS011;32476;50.002;11.854;2023-05-07T07:26:03;15.70;;;12.70;;
46729;SDS011;32476;50.002;11.854;2023-05-07T07:28:28;18.27;;;13.57;;
46729;SDS011;32476;50.002;11.854;2023-05-07T07:30:54;19.80;;;14.00;;
46729;SDS011;32476;50.002;11.854;2023-05-07T07:33:21;16.93;;;12.53;;
46729;SDS011;32476;50.002;11.854;2023-05-07T07:35:47;17.63;;;13.60;;
46729;SDS011;32476;50.002;11.854;2023-05-07T07:38:13;15.73;;;11.57;;
46729;SDS011;32476;50.002;11.854;2023-05-07T07:40:40;16.60;;;12.23;;
46729;SDS011;32476;50.002;11.854;2023-05-07T07:43:06;15.07;;;11.83;;
46729;SDS011;32476;50.002;11.854;2023-05-07T07:45:32;13.87;;;10.47;;
46729;SDS011;32476;50.002;11.854;2023-05-07T07:47:59;15.00;;;11.03;;
46729;SDS011;32476;50.002;11.854;2023-05-07T07:50:25;14.83;;;11.10;;
46729;SDS011;32476;50.002;11.854;2023-05-07T07:52:50;14.03;;;10.23;;
46729;SDS011;32476;50.002;11.854;2023-05-07T07:55:19;15.27;;;11.23;;
46729;SDS011;32476;50.002;11.854;2023-05-07T07:57:48;14.20;;;10.30;;
46729;SDS011;32476;50.002;11.854;2023-05-07T08:00:15;16.57;;;11.07;;
46729;SDS011;32476;50.002;11.854;2023-05-07T08:02:43;17.50;;;10.77;;
46729;SDS011;32476;50.002;11.854;2023-05-07T08:05:10;14.40;;;11.13;;
46729;SDS011;32476;50.002;11.854;2023-05-07T08:07:36;17.73;;;10.60;;
46729;SDS011;32476;50.002;11.854;2023-05-07T08:10:03;13.20;;;10.83;;
46729;SDS011;32476;50.002;11.854;2023-05-07T08:12:29;13.93;;;10.63;;
46729;SDS011;32476;50.002;11.854;2023-05-07T08:14:55;14.38;;;10.40;;
46729;SDS011;32476;50.002;11.854;2023-05-07T08:17:22;14.80;;;10.98;;
46729;SDS011;32476;50.002;11.854;2023-05-07T08:19:48;12.88;;;10.85;;
46729;SDS011;32476;50.002;11.854;2023-05-07T08:22:14;13.38;;;9.52;;
46729;SDS011;32476;50.002;11.854;2023-05-07T08:24:41;13.90;;;10.32;;
46729;SDS011;32476;50.002;11.854;2023-05-07T08:27:07;17.17;;;11.43;;
46729;SDS011;32476;50.002;11.854;2023-05-07T08:29:33;14.20;;;10.32;;
46729;SDS011;32476;50.002;11.854;2023-05-07T08:32:00;14.23;;;10.88;;
46729;SDS011;32476;50.002;11.854;2023-05-07T08:34:26;15.00;;;10.35;;
46729;SDS011;32476;50.002;11.854;2023-05-07T08:36:52;14.05;;;9.73;;
46729;SDS011;32476;50.002;11.854;2023-05-07T08:39:19;17.55;;;9.15;;
46729;SDS011;32476;50.002;11.854;2023-05-07T08:41:45;11.80;;;9.77;;
46729;SDS011;32476;50.002;11.854;2023-05-07T08:44:13;13.20;;;9.25;;
46729;SDS011;32476;50.002;11.854;2023-05-07T08:46:41;16.83;;;9.82;;
46729;SDS011;32476;50.002;11.854;2023-05-07T08:49:08;13.45;;;9.98;;
46729;SDS011;32476;50.002;11.854;2023-05-07T08:51:35;14.90;;;9.90;;
46729;SDS011;32476;50.002;11.854;2023-05-07T08:54:03;13.57;;;10.18;;
46729;SDS011;32476;50.002;11.854;2023-05-07T08:56:30;11.07;;;8.95;;
46729;SDS011;32476;50.002;11.854;2023-05-07T08:58:55;11.68;;;8.95;;
46729;SDS011;32476;50.002;11.854;2023-05-07T09:01:25;16.17;;;10.55;;
46729;SDS011;32476;50.002;11.854;2023-05-07T09:03:51;15.32;;;10.63;;
46729;SDS011;32476;50.002;11.854;2023-05-07T09:06:18;17.00;;;10.80;;
46729;SDS011;32476;50.002;11.854;2023-05-07T09:08:49;15.18;;;10.18;;
46729;SDS011;32476;50.002;11.854;2023-05-07T09:11:19;13.75;;;10.30;;
46729;SDS011;32476;50.002;11.854;2023-05-07T09:13:48;13.88;;;10.25;;
46729;SDS011;32476;50.002;11.854;2023-05-07T09:16:18;16.08;;;11.35;;
46729;SDS011;32476;50.002;11.854;2023-05-07T09:18:50;16.25;;;11.18;;
46729;SDS011;32476;50.002;11.854;2023-05-07T09:21:17;12.73;;;9.23;;
46729;SDS011;32476;50.002;11.854;2023-05-07T09:23:44;12.38;;;8.55;;
46729;SDS011;32476;50.002;11.854;2023-05-07T09:26:11;10.95;;;8.55;;
46729;SDS011;32476;50.002;11.854;2023-05-07T09:28:38;11.38;;;8.23;;
46729;SDS011;32476;50.002;11.854;2023-05-07T09:31:05;10.50;;;7.28;;
46729;SDS011;32476;50.002;11.854;2023-05-07T09:33:33;9.07;;;7.30;;
46729;SDS011;32476;50.002;11.854;2023-05-07T09:36:01;4.40;;;3.40;;
46729;SDS011;32476;50.002;11.854;2023-05-07T09:38:28;5.43;;;4.20;;
46729;SDS011;32476;50.002;11.854;2023-05-07T09:41:06;7.90;;;4.68;;
46729;SDS011;32476;50.002;11.854;2023-05-07T09:43:34;6.87;;;5.07;;
46729;SDS011;32476;50.002;11.854;2023-05-07T09:46:03;9.03;;;5.37;;
46729;SDS011;32476;50.002;11.854;2023-05-07T09:48:31;6.30;;;4.83;;
46729;SDS011;32476;50.002;11.854;2023-05-07T09:51:02;7.93;;;5.70;;
46729;SDS011;32476;50.002;11.854;2023-05-07T09:53:31;12.17;;;6.60;;
46729;SDS011;32476;50.002;11.854;2023-05-07T09:55:58;6.33;;;4.90;;
46729;SDS011;32476;50.002;11.854;2023-05-07T09:58:26;8.25;;;5.93;;
46729;SDS011;32476;50.002;11.854;2023-05-07T10:00:53;6.80;;;4.57;;
46729;SDS011;32476;50.002;11.854;2023-05-07T10:03:21;10.20;;;5.17;;
46729;SDS011;32476;50.002;11.854;2023-05-07T10:05:51;8.55;;;5.72;;
46729;SDS011;32476;50.002;11.854;2023-05-07T10:08:17;8.43;;;5.03;;
46729;SDS011;32476;50.002;11.854;2023-05-07T10:10:45;8.05;;;6.07;;
46729;SDS011;32476;50.002;11.854;2023-05-07T10:13:12;7.07;;;6.00;;
46729;SDS011;32476;50.002;11.854;2023-05-07T10:15:38;7.30;;;5.30;;
46729;SDS011;32476;50.002;11.854;2023-05-07T10:18:04;8.10;;;5.18;;
46729;SDS011;32476;50.002;11.854;2023-05-07T10:20:33;7.72;;;5.75;;
46729;SDS011;32476;50.002;11.854;2023-05-07T10:23:01;7.93;;;5.57;;
46729;SDS011;32476;50.002;11.854;2023-05-07T10:25:31;9.20;;;7.20;;
46729;SDS011;32476;50.002;11.854;2023-05-07T10:28:00;7.32;;;5.75;;
46729;SDS011;32476;50.002;11.854;2023-05-07T10:33:04;6.82;;;4.40;;
46729;SDS011;32476;50.002;11.854;2023-05-07T10:35:32;6.43;;;4.65;;
46729;SDS011;32476;50.002;11.854;2023-05-07T10:38:05;6.15;;;4.72;;
46729;SDS011;32476;50.002;11.854;2023-05-07T10:40:31;6.60;;;4.28;;
46729;SDS011;32476;50.002;11.854;2023-05-07T10:43:01;6.40;;;4.47;;
46729;SDS011;32476;50.002;11.854;2023-05-07T10:45:31;7.13;;;4.93;;
46729;SDS011;32476;50.002;11.854;2023-05-07T10:48:13;7.18;;;5.40;;
46729;SDS011;32476;50.002;11.854;2023-05-07T10:50:42;7.88;;;5.43;;
46729;SDS011;32476;50.002;11.854;2023-05-07T10:55:49;6.28;;;5.03;;
46729;SDS011;32476;50.002;11.854;2023-05-07T11:00:48;6.47;;;4.57;;
46729;SDS011;32476;50.002;11.854;2023-05-07T11:03:14;9.77;;;4.95;;
46729;SDS011;32476;50.002;11.854;2023-05-07T11:05:41;8.20;;;4.25;;
46729;SDS011;32476;50.002;11.854;2023-05-07T11:08:08;5.82;;;4.47;;
46729;SDS011;32476;50.002;11.854;2023-05-07T11:18:48;5.90;;;4.47;;
46729;SDS011;32476;50.002;11.854;2023-05-07T11:24:09;9.68;;;5.40;;
46729;SDS011;32476;50.002;11.854;2023-05-07T11:26:43;7.10;;;5.00;;
46729;SDS011;32476;50.002;11.854;2023-05-07T11:29:12;6.05;;;5.07;;
46729;SDS011;32476;50.002;11.854;2023-05-07T11:31:39;7.10;;;4.35;;
46729;SDS011;32476;50.002;11.854;2023-05-07T11:34:05;7.38;;;5.00;;
46729;SDS011;32476;50.002;11.854;2023-05-07T11:36:34;8.93;;;5.03;;
46729;SDS011;32476;50.002;11.854;2023-05-07T11:39:00;6.82;;;5.50;;
46729;SDS011;32476;50.002;11.854;2023-05-07T11:41:35;5.93;;;4.65;;
46729;SDS011;32476;50.002;11.854;2023-05-07T11:44:06;6.20;;;5.43;;
46729;SDS011;32476;50.002;11.854;2023-05-07T11:46:32;6.55;;;5.47;;
46729;SDS011;32476;50.002;11.854;2023-05-07T11:48:59;7.57;;;5.63;;
46729;SDS011;32476;50.002;11.854;2023-05-07T11:51:27;7.25;;;5.45;;
46729;SDS011;32476;50.002;11.854;2023-05-07T11:53:53;6.38;;;4.90;;
46729;SDS011;32476;50.002;11.854;2023-05-07T11:56:19;5.93;;;4.80;;
46729;SDS011;32476;50.002;11.854;2023-05-07T11:58:47;7.65;;;4.63;;
46729;SDS011;32476;50.002;11.854;2023-05-07T12:01:13;5.55;;;4.50;;
46729;SDS011;32476;50.002;11.854;2023-05-07T12:03:42;6.68;;;4.72;;
46729;SDS011;32476;50.002;11.854;2023-05-07T12:06:10;7.78;;;4.55;;
46729;SDS011;32476;50.002;11.854;2023-05-07T12:08:38;6.35;;;4.88;;
46729;SDS011;32476;50.002;11.854;2023-05-07T12:11:08;4.47;;;3.70;;
46729;SDS011;32476;50.002;11.854;2023-05-07T12:13:39;7.32;;;4.43;;
46729;SDS011;32476;50.002;11.854;2023-05-07T12:16:07;6.57;;;4.72;;
46729;SDS011;32476;50.002;11.854;2023-05-07T12:18:33;6.15;;;4.45;;
46729;SDS011;32476;50.002;11.854;2023-05-07T12:21:02;5.95;;;4.43;;
46729;SDS011;32476;50.002;11.854;2023-05-07T12:23:29;5.50;;;4.32;;
46729;SDS011;32476;50.002;11.854;2023-05-07T12:25:55;7.10;;;4.60;;
46729;SDS011;32476;50.002;11.854;2023-05-07T12:28:22;6.07;;;5.22;;
46729;SDS011;32476;50.002;11.854;2023-05-07T12:30:49;5.20;;;4.60;;
46729;SDS011;32476;50.002;11.854;2023-05-07T12:33:23;9.50;;;5.03;;
46729;SDS011;32476;50.002;11.854;2023-05-07T12:35:53;6.32;;;4.65;;
46729;SDS011;32476;50.002;11.854;2023-05-07T12:38:20;5.90;;;4.38;;
46729;SDS011;32476;50.002;11.854;2023-05-07T12:40:47;5.28;;;4.25;;
46729;SDS011;32476;50.002;11.854;2023-05-07T12:43:21;7.55;;;4.40;;
46729;SDS011;32476;50.002;11.854;2023-05-07T12:45:51;7.25;;;4.13;;
46729;SDS011;32476;50.002;11.854;2023-05-07T12:48:21;4.88;;;3.83;;
46729;SDS011;32476;50.002;11.854;2023-05-07T12:50:51;6.53;;;4.20;;
46729;SDS011;32476;50.002;11.854;2023-05-07T12:53:19;7.65;;;4.28;;
46729;SDS011;32476;50.002;11.854;2023-05-07T12:55:49;7.75;;;5.43;;
46729;SDS011;32476;50.002;11.854;2023-05-07T13:00:42;6.47;;;4.63;;
46729;SDS011;32476;50.002;11.854;2023-05-07T13:03:11;9.27;;;5.75;;
46729;SDS011;32476;50.002;11.854;2023-05-07T13:05:37;8.13;;;5.45;;
46729;SDS011;32476;50.002;11.854;2023-05-07T13:08:03;7.47;;;5.55;;
46729;SDS011;32476;50.002;11.854;2023-05-07T13:10:30;8.50;;;5.43;;
46729;SDS011;32476;50.002;11.854;2023-05-07T13:12:56;6.70;;;5.97;;
46729;SDS011;32476;50.002;11.854;2023-05-07T13:15:22;7.45;;;6.65;;
46729;SDS011;32476;50.002;11.854;2023-05-07T13:17:49;9.38;;;6.95;;
46729;SDS011;32476;50.002;11.854;2023-05-07T13:20:15;7.65;;;6.03;;
46729;SDS011;32476;50.002;11.854;2023-05-07T13:22:41;6.68;;;5.97;;
46729;SDS011;32476;50.002;11.854;2023-05-07T13:25:08;8.18;;;5.75;;
46729;SDS011;32476;50.002;11.854;2023-05-07T13:27:34;10.18;;;6.03;;
46729;SDS011;32476;50.002;11.854;2023-05-07T13:30:02;10.43;;;5.50;;
46729;SDS011;32476;50.002;11.854;2023-05-07T13:32:31;7.03;;;5.75;;
46729;SDS011;32476;50.002;11.854;2023-05-07T13:34:57;6.38;;;5.65;;
46729;SDS011;32476;50.002;11.854;2023-05-07T13:37:22;9.70;;;6.07;;
46729;SDS011;32476;50.002;11.854;2023-05-07T13:39:50;9.50;;;6.40;;
46729;SDS011;32476;50.002;11.854;2023-05-07T13:42:16;8.77;;;5.97;;
46729;SDS011;32476;50.002;11.854;2023-05-07T13:44:42;7.40;;;5.70;;
46729;SDS011;32476;50.002;11.854;2023-05-07T13:47:10;8.45;;;5.95;;
46729;SDS011;32476;50.002;11.854;2023-05-07T13:49:36;6.80;;;5.65;;
46729;SDS011;32476;50.002;11.854;2023-05-07T13:52:02;8.43;;;6.15;;
46729;SDS011;32476;50.002;11.854;2023-05-07T13:54:30;7.63;;;5.90;;
46729;SDS011;32476;50.002;11.854;2023-05-07T13:56:55;5.63;;;5.05;;
46729;SDS011;32476;50.002;11.854;2023-05-07T13:59:21;8.00;;;5.57;;
46729;SDS011;32476;50.002;11.854;2023-05-07T14:01:48;7.38;;;5.78;;
46729;SDS011;32476;50.002;11.854;2023-05-07T14:04:14;7.30;;;5.72;;
46729;SDS011;32476;50.002;11.854;2023-05-07T14:06:40;7.95;;;5.82;;
46729;SDS011;32476;50.002;11.854;2023-05-07T14:09:07;10.13;;;4.97;;
46729;SDS011;32476;50.002;11.854;2023-05-07T14:11:34;8.45;;;5.32;;
46729;SDS011;32476;50.002;11.854;2023-05-07T14:14:00;7.43;;;4.68;;
46729;SDS011;32476;50.002;11.854;2023-05-07T14:16:27;10.07;;;4.80;;
46729;SDS011;32476;50.002;11.854;2023-05-07T14:18:53;6.70;;;4.68;;
46729;SDS011;32476;50.002;11.854;2023-05-07T14:21:18;7.68;;;4.65;;
46729;SDS011;32476;50.002;11.854;2023-05-07T14:23:46;7.60;;;4.38;;
46729;SDS011;32476;50.002;11.854;2023-05-07T14:26:12;9.13;;;4.22;;
46729;SDS011;32476;50.002;11.854;2023-05-07T14:28:38;5.93;;;4.20;;
46729;SDS011;32476;50.002;11.854;2023-05-07T14:31:06;5.70;;;4.47;;
46729;SDS011;32476;50.002;11.854;2023-05-07T14:33:32;4.93;;;4.28;;
46729;SDS011;32476;50.002;11.854;2023-05-07T14:35:57;6.20;;;4.78;;
46729;SDS011;32476;50.002;11.854;2023-05-07T14:38:25;6.50;;;4.93;;
46729;SDS011;32476;50.002;11.854;2023-05-07T14:40:50;6.45;;;5.25;;